»·PEaware :: N340MA KVNY-KSMO

N340MA :: KVNY-KSMO

FLIGHT INFORMATION

Flight Status: Arrived
Operator: Privately registered:
United States
More flights under this callsign
Pilot: Lior A. (7942)
Aircraft: MOONEY M-20K/M ENCORE BRAVO
(M20T)
More flights by this aircraft type
Origin: KVNY Van Nuys
United States
Destination: KSMO Santa Monica Mun
United States
More flights between these airports :: More routes between these airports
Route: +VNY095 DARTS
File this flight plan on PilotEdge
Remarks:
Altitude:
(Current/Filed)
50ft
Speed:
(Current/Filed)
140kts
Departed: 22-Dec-17 01:43 PM
Arrived: 22-Dec-17 02:08 PM
Distance/Time
Traveled:
12nm/0:25
Distance/Time
To Go:
Arrived

Flight Plot

Page will automatically refresh every two minutes.


Map Options




Map Legend


Flown Route
Filed Route
Departure Airport
Arrival Airport
Navaid (VOR, NDB)
Fix

Horizontal Profiles

Position Reports

Time Latitude Longitude Heading Altitude Ground
Speed
22-Dec-17 13:23 34.217019 -118.495889 188 777ft 0kts
22-Dec-17 13:24 34.217019 -118.495889 188 777ft 0kts
22-Dec-17 13:25 34.217019 -118.495889 188 777ft 0kts
22-Dec-17 13:26 34.217019 -118.495889 188 777ft 0kts
22-Dec-17 13:27 34.217019 -118.495889 188 777ft 0kts
22-Dec-17 13:28 34.217019 -118.495889 188 777ft 0kts
22-Dec-17 13:29 34.217019 -118.495889 188 777ft 0kts
22-Dec-17 13:30 34.217019 -118.495889 188 777ft 0kts
22-Dec-17 13:31 34.217019 -118.495889 188 777ft 0kts
22-Dec-17 13:32 34.217019 -118.495889 188 777ft 0kts
22-Dec-17 13:33 34.217019 -118.495889 188 777ft 0kts
22-Dec-17 13:34 34.217018 -118.495889 188 777ft 0kts
22-Dec-17 13:35 34.217018 -118.495889 188 777ft 0kts
22-Dec-17 13:36 34.217017 -118.495889 188 777ft 0kts
22-Dec-17 13:37 34.217016 -118.495890 188 777ft 0kts
22-Dec-17 13:38 34.217016 -118.495890 188 777ft 0kts
22-Dec-17 13:39 34.217015 -118.495890 188 777ft 0kts
22-Dec-17 13:40 34.217014 -118.495890 188 777ft 0kts
22-Dec-17 13:41 34.217014 -118.495890 188 777ft 0kts
22-Dec-17 13:42 34.216884 -118.493639 73 777ft 11kts
22-Dec-17 13:43 34.218948 -118.492040 123 777ft 0kts
22-Dec-17 13:44 34.218947 -118.492038 123 777ft 0kts
22-Dec-17 13:45 34.218947 -118.492037 123 777ft 0kts
22-Dec-17 13:46 34.218946 -118.492036 123 777ft 0kts
22-Dec-17 13:47 34.218946 -118.492036 123 777ft 0kts
22-Dec-17 13:48 34.218816 -118.491436 96 777ft 11kts
22-Dec-17 13:49 34.204002 -118.489785 174 835ft 102kts
22-Dec-17 13:50 34.179803 -118.473553 130 1619ft 102kts
22-Dec-17 13:51 34.159949 -118.443891 121 2203ft 123kts
22-Dec-17 13:52 34.140429 -118.407285 121 2816ft 128kts
22-Dec-17 13:53 34.124054 -118.374082 88 3830ft 104kts
22-Dec-17 13:54 34.127053 -118.341830 82 4714ft 95kts
22-Dec-17 13:55 34.131196 -118.305082 82 5046ft 137kts
22-Dec-17 13:56 34.136494 -118.253896 81 5022ft 164kts
22-Dec-17 13:57 34.142082 -118.197871 81 5019ft 171kts
22-Dec-17 13:58 34.173437 -118.185855 303 5026ft 171kts
22-Dec-17 13:59 34.165415 -118.241055 246 4620ft 171kts
22-Dec-17 14:00 34.142328 -118.290709 228 3889ft 170kts
22-Dec-17 14:01 34.109723 -118.328269 221 3000ft 162kts
22-Dec-17 14:02 34.081427 -118.364702 228 2507ft 132kts
22-Dec-17 14:03 34.060145 -118.392322 226 1824ft 96kts
22-Dec-17 14:04 34.042707 -118.418147 233 1254ft 103kts
22-Dec-17 14:05 34.022913 -118.442864 224 284ft 109kts
22-Dec-17 14:06 34.000832 -118.465955 189 597ft 104kts
22-Dec-17 14:07 34.001206 -118.441342 44 673ft 104kts
22-Dec-17 14:08 34.020721 -118.445004 253 305ft 92kts
22-Dec-17 14:09 34.002564 -118.462756 170 534ft 93kts
22-Dec-17 14:10 33.999997 -118.433653 67 1179ft 106kts
22-Dec-17 14:11 34.016239 -118.401079 37 1143ft 112kts
22-Dec-17 14:12 34.033334 -118.420059 273 836ft 104kts
22-Dec-17 14:13 34.019772 -118.446693 223 154ft 96kts
22-Dec-17 14:14 34.010775 -118.456725 129 145ft 4kts
22-Dec-17 14:15 34.011574 -118.455406 43 145ft 15kts
22-Dec-17 14:16 34.013896 -118.452488 44 145ft 10kts
22-Dec-17 14:17 34.014653 -118.451358 338 145ft 0kts
22-Dec-17 14:18 34.014654 -118.451358 338 145ft 0kts
22-Dec-17 14:19 34.014654 -118.451359 338 145ft 0kts
22-Dec-17 14:20 34.014654 -118.451359 338 145ft 0kts
22-Dec-17 14:21 34.014654 -118.451359 338 145ft 0kts
22-Dec-17 14:22 34.014654 -118.451359 338 145ft 0kts
22-Dec-17 14:23 34.014654 -118.451359 338 145ft 0kts
22-Dec-17 14:24 34.014654 -118.451359 338 145ft 0kts
22-Dec-17 14:25 34.014655 -118.451359 338 145ft 0kts
22-Dec-17 14:26 34.014656 -118.451360 338 145ft 0kts

Navigation Log

Ident Type
1. KVNY Airport
2. DARTS Fix
3. KSMO Airport